sensor_id;sensor_type;location;lat;lon;timestamp;temperature;humidity
8892;DHT22;4482;54.332;10.118;2023-04-03T00:01:02;2.80;99.90
8892;DHT22;4482;54.332;10.118;2023-04-03T00:03:29;2.80;99.90
8892;DHT22;4482;54.332;10.118;2023-04-03T00:05:56;2.80;99.90
8892;DHT22;4482;54.332;10.118;2023-04-03T00:08:24;2.80;99.90
8892;DHT22;4482;54.332;10.118;2023-04-03T00:10:51;2.70;99.90
8892;DHT22;4482;54.332;10.118;2023-04-03T00:13:18;2.70;99.90
8892;DHT22;4482;54.332;10.118;2023-04-03T00:15:44;2.60;99.90
8892;DHT22;4482;54.332;10.118;2023-04-03T00:18:11;2.60;99.90
8892;DHT22;4482;54.332;10.118;2023-04-03T00:20:38;2.60;99.90
8892;DHT22;4482;54.332;10.118;2023-04-03T00:23:04;2.50;99.90
8892;DHT22;4482;54.332;10.118;2023-04-03T00:25:32;2.50;99.90
8892;DHT22;4482;54.332;10.118;2023-04-03T00:27:59;2.50;99.90
8892;DHT22;4482;54.332;10.118;2023-04-03T00:30:26;2.50;99.90
8892;DHT22;4482;54.332;10.118;2023-04-03T00:32:52;2.50;99.90
8892;DHT22;4482;54.332;10.118;2023-04-03T00:35:20;2.50;99.90
8892;DHT22;4482;54.332;10.118;2023-04-03T00:37:47;2.40;99.90
8892;DHT22;4482;54.332;10.118;2023-04-03T00:40:14;2.40;99.90
8892;DHT22;4482;54.332;10.118;2023-04-03T00:42:43;2.40;99.90
8892;DHT22;4482;54.332;10.118;2023-04-03T00:45:23;2.40;99.90
8892;DHT22;4482;54.332;10.118;2023-04-03T00:47:50;2.40;99.90
8892;DHT22;4482;54.332;10.118;2023-04-03T00:50:17;2.40;99.90
8892;DHT22;4482;54.332;10.118;2023-04-03T00:52:44;2.40;99.90
8892;DHT22;4482;54.332;10.118;2023-04-03T00:55:14;2.40;99.90
8892;DHT22;4482;54.332;10.118;2023-04-03T00:57:43;2.40;99.90
8892;DHT22;4482;54.332;10.118;2023-04-03T01:00:11;2.40;99.90
8892;DHT22;4482;54.332;10.118;2023-04-03T01:02:38;2.40;99.90
8892;DHT22;4482;54.332;10.118;2023-04-03T01:05:06;2.30;99.90
8892;DHT22;4482;54.332;10.118;2023-04-03T01:07:33;2.20;99.90
8892;DHT22;4482;54.332;10.118;2023-04-03T01:10:04;2.10;99.90
8892;DHT22;4482;54.332;10.118;2023-04-03T01:12:32;2.00;99.90
8892;DHT22;4482;54.332;10.118;2023-04-03T01:15:04;2.00;99.90
8892;DHT22;4482;54.332;10.118;2023-04-03T01:17:32;1.90;99.90
8892;DHT22;4482;54.332;10.118;2023-04-03T01:20:18;1.90;99.90
8892;DHT22;4482;54.332;10.118;2023-04-03T01:22:51;1.80;99.90
8892;DHT22;4482;54.332;10.118;2023-04-03T01:25:21;1.80;99.90
8892;DHT22;4482;54.332;10.118;2023-04-03T01:27:47;1.80;99.90
8892;DHT22;4482;54.332;10.118;2023-04-03T01:30:17;1.70;99.90
8892;DHT22;4482;54.332;10.118;2023-04-03T01:32:45;1.70;99.90
8892;DHT22;4482;54.332;10.118;2023-04-03T01:35:12;1.70;99.90
8892;DHT22;4482;54.332;10.118;2023-04-03T01:37:39;1.70;99.90
8892;DHT22;4482;54.332;10.118;2023-04-03T01:40:06;1.70;99.90
8892;DHT22;4482;54.332;10.118;2023-04-03T01:42:33;1.70;99.90
8892;DHT22;4482;54.332;10.118;2023-04-03T01:45:00;1.60;99.90
8892;DHT22;4482;54.332;10.118;2023-04-03T01:47:26;1.60;99.90
8892;DHT22;4482;54.332;10.118;2023-04-03T01:49:54;1.50;99.90
8892;DHT22;4482;54.332;10.118;2023-04-03T01:52:21;1.50;99.90
8892;DHT22;4482;54.332;10.118;2023-04-03T01:54:47;1.40;99.90
8892;DHT22;4482;54.332;10.118;2023-04-03T01:57:14;1.30;99.90
8892;DHT22;4482;54.332;10.118;2023-04-03T01:59:41;1.30;99.90
8892;DHT22;4482;54.332;10.118;2023-04-03T02:02:08;1.20;99.90
8892;DHT22;4482;54.332;10.118;2023-04-03T02:04:34;1.20;99.90
8892;DHT22;4482;54.332;10.118;2023-04-03T02:07:02;1.10;99.90
8892;DHT22;4482;54.332;10.118;2023-04-03T02:09:29;1.10;99.90
8892;DHT22;4482;54.332;10.118;2023-04-03T02:11:55;1.10;99.90
8892;DHT22;4482;54.332;10.118;2023-04-03T02:14:22;1.10;99.90
8892;DHT22;4482;54.332;10.118;2023-04-03T02:16:49;1.10;99.90
8892;DHT22;4482;54.332;10.118;2023-04-03T02:19:15;1.10;99.90
8892;DHT22;4482;54.332;10.118;2023-04-03T02:21:42;1.10;99.90
8892;DHT22;4482;54.332;10.118;2023-04-03T02:24:10;1.10;99.90
8892;DHT22;4482;54.332;10.118;2023-04-03T02:26:37;1.10;99.90
8892;DHT22;4482;54.332;10.118;2023-04-03T02:29:03;1.10;99.90
8892;DHT22;4482;54.332;10.118;2023-04-03T02:31:30;1.10;99.90
8892;DHT22;4482;54.332;10.118;2023-04-03T02:33:56;1.10;99.90
8892;DHT22;4482;54.332;10.118;2023-04-03T02:36:23;1.10;99.90
8892;DHT22;4482;54.332;10.118;2023-04-03T02:38:50;1.10;99.90
8892;DHT22;4482;54.332;10.118;2023-04-03T02:41:18;1.00;99.90
8892;DHT22;4482;54.332;10.118;2023-04-03T02:43:46;1.00;99.90
8892;DHT22;4482;54.332;10.118;2023-04-03T02:46:12;1.00;99.90
8892;DHT22;4482;54.332;10.118;2023-04-03T02:48:40;1.00;99.90
8892;DHT22;4482;54.332;10.118;2023-04-03T02:51:06;1.00;99.90
8892;DHT22;4482;54.332;10.118;2023-04-03T02:53:33;1.10;99.90
8892;DHT22;4482;54.332;10.118;2023-04-03T02:56:00;1.10;99.90
8892;DHT22;4482;54.332;10.118;2023-04-03T02:58:28;1.10;99.90
8892;DHT22;4482;54.332;10.118;2023-04-03T03:00:54;1.10;99.90
8892;DHT22;4482;54.332;10.118;2023-04-03T03:03:21;1.10;99.90
8892;DHT22;4482;54.332;10.118;2023-04-03T03:05:48;1.20;99.90
8892;DHT22;4482;54.332;10.118;2023-04-03T03:08:14;1.20;99.90
8892;DHT22;4482;54.332;10.118;2023-04-03T03:10:41;1.20;99.90
8892;DHT22;4482;54.332;10.118;2023-04-03T03:13:08;1.10;99.90
8892;DHT22;4482;54.332;10.118;2023-04-03T03:15:36;1.10;99.90
8892;DHT22;4482;54.332;10.118;2023-04-03T03:18:02;1.10;99.90
8892;DHT22;4482;54.332;10.118;2023-04-03T03:20:29;1.00;99.90
8892;DHT22;4482;54.332;10.118;2023-04-03T03:22:55;1.00;99.90
8892;DHT22;4482;54.332;10.118;2023-04-03T03:25:22;0.90;99.90
8892;DHT22;4482;54.332;10.118;2023-04-03T03:27:49;1.00;99.90
8892;DHT22;4482;54.332;10.118;2023-04-03T03:30:15;0.90;99.90
8892;DHT22;4482;54.332;10.118;2023-04-03T03:32:43;0.90;99.90
8892;DHT22;4482;54.332;10.118;2023-04-03T03:35:10;0.90;99.90
8892;DHT22;4482;54.332;10.118;2023-04-03T03:37:36;0.80;99.90
8892;DHT22;4482;54.332;10.118;2023-04-03T03:40:03;0.80;99.90
8892;DHT22;4482;54.332;10.118;2023-04-03T03:42:30;0.70;99.90
8892;DHT22;4482;54.332;10.118;2023-04-03T03:44:57;0.70;99.90
8892;DHT22;4482;54.332;10.118;2023-04-03T03:47:23;0.60;99.90
8892;DHT22;4482;54.332;10.118;2023-04-03T03:49:52;0.70;99.90
8892;DHT22;4482;54.332;10.118;2023-04-03T03:52:18;0.70;99.90
8892;DHT22;4482;54.332;10.118;2023-04-03T03:54:45;0.70;99.90
8892;DHT22;4482;54.332;10.118;2023-04-03T03:57:11;0.70;99.90
8892;DHT22;4482;54.332;10.118;2023-04-03T03:59:38;0.70;99.90
8892;DHT22;4482;54.332;10.118;2023-04-03T04:02:07;0.70;99.90
8892;DHT22;4482;54.332;10.118;2023-04-03T04:04:33;0.60;99.90
8892;DHT22;4482;54.332;10.118;2023-04-03T04:07:01;0.60;99.90
8892;DHT22;4482;54.332;10.118;2023-04-03T04:09:28;0.60;99.90
8892;DHT22;4482;54.332;10.118;2023-04-03T04:11:55;0.70;99.90
8892;DHT22;4482;54.332;10.118;2023-04-03T04:14:21;0.70;99.90
8892;DHT22;4482;54.332;10.118;2023-04-03T04:16:48;0.70;99.90
8892;DHT22;4482;54.332;10.118;2023-04-03T04:19:15;0.70;99.90
8892;DHT22;4482;54.332;10.118;2023-04-03T04:21:41;0.60;99.90
8892;DHT22;4482;54.332;10.118;2023-04-03T04:24:09;0.60;99.90
8892;DHT22;4482;54.332;10.118;2023-04-03T04:26:36;0.60;99.90
8892;DHT22;4482;54.332;10.118;2023-04-03T04:29:03;0.60;99.90
8892;DHT22;4482;54.332;10.118;2023-04-03T04:31:29;0.60;99.90
8892;DHT22;4482;54.332;10.118;2023-04-03T04:33:56;0.60;99.90
8892;DHT22;4482;54.332;10.118;2023-04-03T04:36:23;0.60;99.90
8892;DHT22;4482;54.332;10.118;2023-04-03T04:38:49;0.60;99.90
8892;DHT22;4482;54.332;10.118;2023-04-03T04:41:19;0.60;99.90
8892;DHT22;4482;54.332;10.118;2023-04-03T04:43:47;0.60;99.90
8892;DHT22;4482;54.332;10.118;2023-04-03T04:46:14;0.60;99.90
8892;DHT22;4482;54.332;10.118;2023-04-03T04:48:40;0.60;99.90
8892;DHT22;4482;54.332;10.118;2023-04-03T04:51:07;0.60;99.90
8892;DHT22;4482;54.332;10.118;2023-04-03T04:53:34;0.60;99.90
8892;DHT22;4482;54.332;10.118;2023-04-03T04:56:00;0.60;99.90
8892;DHT22;4482;54.332;10.118;2023-04-03T04:58:28;0.60;99.90
8892;DHT22;4482;54.332;10.118;2023-04-03T05:00:58;0.70;99.90
8892;DHT22;4482;54.332;10.118;2023-04-03T05:03:24;0.70;99.90
8892;DHT22;4482;54.332;10.118;2023-04-03T05:05:51;0.70;99.90
8892;DHT22;4482;54.332;10.118;2023-04-03T05:08:18;1.00;99.90
8892;DHT22;4482;54.332;10.118;2023-04-03T05:10:44;1.10;99.90
8892;DHT22;4482;54.332;10.118;2023-04-03T05:13:11;1.10;99.90
8892;DHT22;4482;54.332;10.118;2023-04-03T05:15:39;1.00;99.90
8892;DHT22;4482;54.332;10.118;2023-04-03T05:18:06;1.10;99.90
8892;DHT22;4482;54.332;10.118;2023-04-03T05:20:33;1.10;99.90
8892;DHT22;4482;54.332;10.118;2023-04-03T05:23:00;1.20;99.90
8892;DHT22;4482;54.332;10.118;2023-04-03T05:25:26;1.20;99.90
8892;DHT22;4482;54.332;10.118;2023-04-03T05:27:53;1.30;99.90
8892;DHT22;4482;54.332;10.118;2023-04-03T05:30:20;1.30;99.90
8892;DHT22;4482;54.332;10.118;2023-04-03T05:32:48;1.50;99.90
8892;DHT22;4482;54.332;10.118;2023-04-03T05:35:14;1.50;99.90
8892;DHT22;4482;54.332;10.118;2023-04-03T05:37:41;1.60;99.90
8892;DHT22;4482;54.332;10.118;2023-04-03T05:40:08;1.70;99.90
8892;DHT22;4482;54.332;10.118;2023-04-03T05:42:35;1.80;99.90
8892;DHT22;4482;54.332;10.118;2023-04-03T05:45:01;1.90;99.90
8892;DHT22;4482;54.332;10.118;2023-04-03T05:47:28;1.90;99.90
8892;DHT22;4482;54.332;10.118;2023-04-03T05:49:57;2.00;99.90
8892;DHT22;4482;54.332;10.118;2023-04-03T05:52:25;2.10;99.90
8892;DHT22;4482;54.332;10.118;2023-04-03T05:54:52;2.30;99.90
8892;DHT22;4482;54.332;10.118;2023-04-03T05:57:19;2.40;99.90
8892;DHT22;4482;54.332;10.118;2023-04-03T05:59:46;2.50;99.90
8892;DHT22;4482;54.332;10.118;2023-04-03T06:02:13;2.80;99.90
8892;DHT22;4482;54.332;10.118;2023-04-03T06:04:40;3.00;99.90
8892;DHT22;4482;54.332;10.118;2023-04-03T06:07:09;3.20;99.90
8892;DHT22;4482;54.332;10.118;2023-04-03T06:09:37;3.40;99.90
8892;DHT22;4482;54.332;10.118;2023-04-03T06:12:04;3.70;99.90
8892;DHT22;4482;54.332;10.118;2023-04-03T06:14:31;3.80;99.90
8892;DHT22;4482;54.332;10.118;2023-04-03T06:16:57;4.20;99.90
8892;DHT22;4482;54.332;10.118;2023-04-03T06:19:24;4.50;99.90
8892;DHT22;4482;54.332;10.118;2023-04-03T06:21:51;5.00;99.90
8892;DHT22;4482;54.332;10.118;2023-04-03T06:24:19;5.40;99.90
8892;DHT22;4482;54.332;10.118;2023-04-03T06:26:47;5.70;99.90
8892;DHT22;4482;54.332;10.118;2023-04-03T06:29:14;6.20;99.90
8892;DHT22;4482;54.332;10.118;2023-04-03T06:31:40;7.10;99.90
8892;DHT22;4482;54.332;10.118;2023-04-03T06:34:07;8.00;99.90
8892;DHT22;4482;54.332;10.118;2023-04-03T06:36:35;8.80;99.90
8892;DHT22;4482;54.332;10.118;2023-04-03T06:39:02;8.90;99.90
8892;DHT22;4482;54.332;10.118;2023-04-03T06:41:30;9.10;99.90
8892;DHT22;4482;54.332;10.118;2023-04-03T06:43:57;9.20;99.90
8892;DHT22;4482;54.332;10.118;2023-04-03T06:46:24;9.60;99.90
8892;DHT22;4482;54.332;10.118;2023-04-03T06:48:51;10.00;99.90
8892;DHT22;4482;54.332;10.118;2023-04-03T06:51:19;10.30;99.90
8892;DHT22;4482;54.332;10.118;2023-04-03T06:53:46;10.50;99.90
8892;DHT22;4482;54.332;10.118;2023-04-03T06:56:12;10.70;99.90
8892;DHT22;4482;54.332;10.118;2023-04-03T06:58:41;10.80;99.90
8892;DHT22;4482;54.332;10.118;2023-04-03T07:01:08;10.90;99.90
8892;DHT22;4482;54.332;10.118;2023-04-03T07:03:36;11.10;99.90
8892;DHT22;4482;54.332;10.118;2023-04-03T07:06:03;11.10;99.90
8892;DHT22;4482;54.332;10.118;2023-04-03T07:08:30;11.50;99.90
8892;DHT22;4482;54.332;10.118;2023-04-03T07:10:57;11.80;99.90
8892;DHT22;4482;54.332;10.118;2023-04-03T07:13:23;12.60;99.90
8892;DHT22;4482;54.332;10.118;2023-04-03T07:15:52;13.30;99.90
8892;DHT22;4482;54.332;10.118;2023-04-03T07:18:18;13.70;99.90
8892;DHT22;4482;54.332;10.118;2023-04-03T07:20:46;14.00;99.90
8892;DHT22;4482;54.332;10.118;2023-04-03T07:23:13;14.20;99.90
8892;DHT22;4482;54.332;10.118;2023-04-03T07:25:41;15.20;99.90
8892;DHT22;4482;54.332;10.118;2023-04-03T07:28:08;15.70;99.20
8892;DHT22;4482;54.332;10.118;2023-04-03T07:30:41;15.50;97.40
8892;DHT22;4482;54.332;10.118;2023-04-03T07:33:09;15.90;96.40
8892;DHT22;4482;54.332;10.118;2023-04-03T07:35:36;15.70;95.90
8892;DHT22;4482;54.332;10.118;2023-04-03T07:38:02;16.10;95.10
8892;DHT22;4482;54.332;10.118;2023-04-03T07:40:29;16.20;95.10
8892;DHT22;4482;54.332;10.118;2023-04-03T07:42:56;16.70;93.90
8892;DHT22;4482;54.332;10.118;2023-04-03T07:45:23;16.70;91.90
8892;DHT22;4482;54.332;10.118;2023-04-03T07:47:49;16.10;92.40
8892;DHT22;4482;54.332;10.118;2023-04-03T07:50:18;15.90;92.50
8892;DHT22;4482;54.332;10.118;2023-04-03T07:52:45;16.00;91.20
8892;DHT22;4482;54.332;10.118;2023-04-03T07:55:11;16.10;90.50
8892;DHT22;4482;54.332;10.118;2023-04-03T07:57:38;16.50;89.00
8892;DHT22;4482;54.332;10.118;2023-04-03T08:00:06;16.70;84.70
8892;DHT22;4482;54.332;10.118;2023-04-03T08:02:34;16.60;85.20
8892;DHT22;4482;54.332;10.118;2023-04-03T08:05:02;16.80;82.90
8892;DHT22;4482;54.332;10.118;2023-04-03T08:07:30;15.90;80.90
8892;DHT22;4482;54.332;10.118;2023-04-03T08:09:57;16.10;80.20
8892;DHT22;4482;54.332;10.118;2023-04-03T08:12:24;15.90;77.90
8892;DHT22;4482;54.332;10.118;2023-04-03T08:14:50;16.00;78.70
8892;DHT22;4482;54.332;10.118;2023-04-03T08:17:17;16.80;75.70
8892;DHT22;4482;54.332;10.118;2023-04-03T08:19:44;17.00;72.40
8892;DHT22;4482;54.332;10.118;2023-04-03T08:22:10;16.90;70.90
8892;DHT22;4482;54.332;10.118;2023-04-03T08:24:38;16.20;70.60
8892;DHT22;4482;54.332;10.118;2023-04-03T08:27:05;16.40;67.60
8892;DHT22;4482;54.332;10.118;2023-04-03T08:29:31;16.10;67.90
8892;DHT22;4482;54.332;10.118;2023-04-03T08:31:58;16.40;67.50
8892;DHT22;4482;54.332;10.118;2023-04-03T08:34:25;16.40;67.50
8892;DHT22;4482;54.332;10.118;2023-04-03T08:36:52;16.50;68.90
8892;DHT22;4482;54.332;10.118;2023-04-03T08:39:18;16.60;66.30
8892;DHT22;4482;54.332;10.118;2023-04-03T08:41:46;17.00;66.10
8892;DHT22;4482;54.332;10.118;2023-04-03T08:44:15;18.70;65.90
8892;DHT22;4482;54.332;10.118;2023-04-03T08:46:47;19.60;58.30
8892;DHT22;4482;54.332;10.118;2023-04-03T08:49:21;19.90;56.10
8892;DHT22;4482;54.332;10.118;2023-04-03T08:51:49;20.40;55.70
8892;DHT22;4482;54.332;10.118;2023-04-03T08:54:20;21.10;48.60
8892;DHT22;4482;54.332;10.118;2023-04-03T08:56:49;21.20;46.20
8892;DHT22;4482;54.332;10.118;2023-04-03T08:59:17;21.30;42.50
8892;DHT22;4482;54.332;10.118;2023-04-03T09:01:48;21.00;42.20
8892;DHT22;4482;54.332;10.118;2023-04-03T09:04:16;20.70;41.20
8892;DHT22;4482;54.332;10.118;2023-04-03T09:06:44;20.90;41.20
8892;DHT22;4482;54.332;10.118;2023-04-03T09:09:14;20.40;39.30
8892;DHT22;4482;54.332;10.118;2023-04-03T09:11:44;20.10;39.20
8892;DHT22;4482;54.332;10.118;2023-04-03T09:14:15;19.90;37.20
8892;DHT22;4482;54.332;10.118;2023-04-03T09:16:46;18.60;37.60
8892;DHT22;4482;54.332;10.118;2023-04-03T09:19:15;18.00;37.90
8892;DHT22;4482;54.332;10.118;2023-04-03T09:21:44;17.50;37.80
8892;DHT22;4482;54.332;10.118;2023-04-03T09:24:11;18.60;37.10
8892;DHT22;4482;54.332;10.118;2023-04-03T09:26:41;19.10;36.70
8892;DHT22;4482;54.332;10.118;2023-04-03T09:29:08;18.80;34.60
8892;DHT22;4482;54.332;10.118;2023-04-03T09:31:42;18.90;30.40
8892;DHT22;4482;54.332;10.118;2023-04-03T09:34:10;17.80;31.40
8892;DHT22;4482;54.332;10.118;2023-04-03T09:36:40;17.40;32.30
8892;DHT22;4482;54.332;10.118;2023-04-03T09:39:09;17.80;32.70
8892;DHT22;4482;54.332;10.118;2023-04-03T09:41:36;18.80;33.10
8892;DHT22;4482;54.332;10.118;2023-04-03T09:44:04;19.90;31.90
8892;DHT22;4482;54.332;10.118;2023-04-03T09:46:45;20.40;33.20
8892;DHT22;4482;54.332;10.118;2023-04-03T09:49:11;20.60;32.70
8892;DHT22;4482;54.332;10.118;2023-04-03T09:51:38;20.10;35.40
8892;DHT22;4482;54.332;10.118;2023-04-03T09:56:49;19.70;35.70
8892;DHT22;4482;54.332;10.118;2023-04-03T09:59:16;20.20;35.40
8892;DHT22;4482;54.332;10.118;2023-04-03T10:01:55;20.00;35.10
8892;DHT22;4482;54.332;10.118;2023-04-03T10:04:22;19.20;33.70
8892;DHT22;4482;54.332;10.118;2023-04-03T10:06:50;18.60;34.50
8892;DHT22;4482;54.332;10.118;2023-04-03T10:09:18;18.80;34.60
8892;DHT22;4482;54.332;10.118;2023-04-03T10:11:57;18.90;33.70
8892;DHT22;4482;54.332;10.118;2023-04-03T10:14:24;18.40;33.80
8892;DHT22;4482;54.332;10.118;2023-04-03T10:16:53;17.60;32.60
8892;DHT22;4482;54.332;10.118;2023-04-03T10:19:33;16.60;35.00
8892;DHT22;4482;54.332;10.118;2023-04-03T10:22:02;16.80;35.40
8892;DHT22;4482;54.332;10.118;2023-04-03T10:24:31;17.40;35.10
8892;DHT22;4482;54.332;10.118;2023-04-03T10:27:03;18.00;35.40
8892;DHT22;4482;54.332;10.118;2023-04-03T10:29:35;18.50;34.80
8892;DHT22;4482;54.332;10.118;2023-04-03T10:32:09;17.80;35.80
8892;DHT22;4482;54.332;10.118;2023-04-03T10:34:39;18.90;36.60
8892;DHT22;4482;54.332;10.118;2023-04-03T10:37:09;19.00;35.10
8892;DHT22;4482;54.332;10.118;2023-04-03T10:39:39;18.90;35.00
8892;DHT22;4482;54.332;10.118;2023-04-03T10:42:08;18.00;34.10
8892;DHT22;4482;54.332;10.118;2023-04-03T10:44:37;17.10;34.00
8892;DHT22;4482;54.332;10.118;2023-04-03T10:47:10;14.20;35.70
8892;DHT22;4482;54.332;10.118;2023-04-03T10:49:41;13.50;37.80
8892;DHT22;4482;54.332;10.118;2023-04-03T10:52:13;14.20;39.30
8892;DHT22;4482;54.332;10.118;2023-04-03T10:54:44;12.90;40.80
8892;DHT22;4482;54.332;10.118;2023-04-03T10:57:13;11.70;44.30
8892;DHT22;4482;54.332;10.118;2023-04-03T10:59:47;10.10;48.00
8892;DHT22;4482;54.332;10.118;2023-04-03T11:02:19;9.20;51.60
8892;DHT22;4482;54.332;10.118;2023-04-03T11:04:50;8.70;54.30
8892;DHT22;4482;54.332;10.118;2023-04-03T11:07:19;8.70;56.70
8892;DHT22;4482;54.332;10.118;2023-04-03T11:09:48;9.00;57.90
8892;DHT22;4482;54.332;10.118;2023-04-03T11:12:16;9.30;57.00
8892;DHT22;4482;54.332;10.118;2023-04-03T11:14:43;9.00;53.00
8892;DHT22;4482;54.332;10.118;2023-04-03T11:17:11;8.60;54.10
8892;DHT22;4482;54.332;10.118;2023-04-03T11:19:44;8.40;55.20
8892;DHT22;4482;54.332;10.118;2023-04-03T11:22:13;8.20;53.90
8892;DHT22;4482;54.332;10.118;2023-04-03T11:24:42;7.90;49.70
8892;DHT22;4482;54.332;10.118;2023-04-03T11:27:11;7.60;48.20
8892;DHT22;4482;54.332;10.118;2023-04-03T11:29:41;7.30;49.30
8892;DHT22;4482;54.332;10.118;2023-04-03T11:32:17;7.20;49.70
8892;DHT22;4482;54.332;10.118;2023-04-03T11:34:49;7.30;50.60
8892;DHT22;4482;54.332;10.118;2023-04-03T11:37:17;7.20;50.60
8892;DHT22;4482;54.332;10.118;2023-04-03T11:39:50;7.10;52.60
8892;DHT22;4482;54.332;10.118;2023-04-03T11:42:25;7.10;55.50
8892;DHT22;4482;54.332;10.118;2023-04-03T11:47:46;7.10;58.00
8892;DHT22;4482;54.332;10.118;2023-04-03T11:58:32;6.90;59.90
8892;DHT22;4482;54.332;10.118;2023-04-03T12:01:04;6.80;59.50
8892;DHT22;4482;54.332;10.118;2023-04-03T12:09:04;7.00;69.50
8892;DHT22;4482;54.332;10.118;2023-04-03T12:11:48;6.80;70.20
8892;DHT22;4482;54.332;10.118;2023-04-03T12:14:16;6.80;72.30
8892;DHT22;4482;54.332;10.118;2023-04-03T12:16:44;6.90;65.00
8892;DHT22;4482;54.332;10.118;2023-04-03T12:19:29;6.70;65.80
8892;DHT22;4482;54.332;10.118;2023-04-03T12:22:15;6.60;65.50
8892;DHT22;4482;54.332;10.118;2023-04-03T12:24:45;6.50;64.80
8892;DHT22;4482;54.332;10.118;2023-04-03T12:27:16;6.50;66.10
8892;DHT22;4482;54.332;10.118;2023-04-03T12:29:47;6.60;66.70
8892;DHT22;4482;54.332;10.118;2023-04-03T12:32:19;6.50;64.10
8892;DHT22;4482;54.332;10.118;2023-04-03T12:34:55;6.40;67.50
8892;DHT22;4482;54.332;10.118;2023-04-03T12:37:34;6.40;77.60
8892;DHT22;4482;54.332;10.118;2023-04-03T12:40:07;6.40;67.20
8892;DHT22;4482;54.332;10.118;2023-04-03T12:42:41;6.50;70.40
8892;DHT22;4482;54.332;10.118;2023-04-03T12:45:17;6.50;71.30
8892;DHT22;4482;54.332;10.118;2023-04-03T12:47:45;6.70;72.80
8892;DHT22;4482;54.332;10.118;2023-04-03T12:50:18;6.40;72.30
8892;DHT22;4482;54.332;10.118;2023-04-03T12:52:47;6.30;74.00
8892;DHT22;4482;54.332;10.118;2023-04-03T12:55:17;6.30;76.00
8892;DHT22;4482;54.332;10.118;2023-04-03T12:57:44;6.50;73.90
8892;DHT22;4482;54.332;10.118;2023-04-03T13:00:25;6.50;68.70
8892;DHT22;4482;54.332;10.118;2023-04-03T13:02:53;6.60;71.50
8892;DHT22;4482;54.332;10.118;2023-04-03T13:05:19;6.60;71.70
8892;DHT22;4482;54.332;10.118;2023-04-03T13:07:49;6.50;73.80
8892;DHT22;4482;54.332;10.118;2023-04-03T13:10:16;6.60;77.10
8892;DHT22;4482;54.332;10.118;2023-04-03T13:12:47;6.50;77.60
8892;DHT22;4482;54.332;10.118;2023-04-03T13:15:16;6.40;79.20
8892;DHT22;4482;54.332;10.118;2023-04-03T13:17:46;6.20;79.00
8892;DHT22;4482;54.332;10.118;2023-04-03T13:20:18;6.20;77.10
8892;DHT22;4482;54.332;10.118;2023-04-03T13:22:47;6.20;75.90
8892;DHT22;4482;54.332;10.118;2023-04-03T13:25:15;6.20;75.90
8892;DHT22;4482;54.332;10.118;2023-04-03T13:27:42;6.10;75.50
8892;DHT22;4482;54.332;10.118;2023-04-03T13:30:17;6.10;76.40
8892;DHT22;4482;54.332;10.118;2023-04-03T13:32:47;6.10;78.20
8892;DHT22;4482;54.332;10.118;2023-04-03T13:35:31;6.10;80.00
8892;DHT22;4482;54.332;10.118;2023-04-03T13:37:58;6.10;80.90
8892;DHT22;4482;54.332;10.118;2023-04-03T13:40:25;6.10;82.00
8892;DHT22;4482;54.332;10.118;2023-04-03T13:43:00;6.00;83.50
8892;DHT22;4482;54.332;10.118;2023-04-03T13:45:27;6.00;84.80
8892;DHT22;4482;54.332;10.118;2023-04-03T13:48:08;6.00;85.50
8892;DHT22;4482;54.332;10.118;2023-04-03T13:50:49;6.10;87.00
8892;DHT22;4482;54.332;10.118;2023-04-03T13:53:16;6.10;88.20
8892;DHT22;4482;54.332;10.118;2023-04-03T13:55:52;6.10;88.00
8892;DHT22;4482;54.332;10.118;2023-04-03T13:58:21;6.20;88.30
8892;DHT22;4482;54.332;10.118;2023-04-03T14:00:50;6.30;87.80
8892;DHT22;4482;54.332;10.118;2023-04-03T14:03:20;6.30;88.50
8892;DHT22;4482;54.332;10.118;2023-04-03T14:05:47;6.20;88.90
8892;DHT22;4482;54.332;10.118;2023-04-03T14:08:14;6.20;88.30
8892;DHT22;4482;54.332;10.118;2023-04-03T14:10:41;6.20;85.30
8892;DHT22;4482;54.332;10.118;2023-04-03T14:13:09;6.20;88.50
8892;DHT22;4482;54.332;10.118;2023-04-03T14:15:36;6.20;87.60
8892;DHT22;4482;54.332;10.118;2023-04-03T14:18:02;6.10;86.70
8892;DHT22;4482;54.332;10.118;2023-04-03T14:20:31;6.00;90.00
8892;DHT22;4482;54.332;10.118;2023-04-03T14:22:57;6.10;90.60
8892;DHT22;4482;54.332;10.118;2023-04-03T14:25:24;6.10;88.60
8892;DHT22;4482;54.332;10.118;2023-04-03T14:27:52;6.10;85.60
8892;DHT22;4482;54.332;10.118;2023-04-03T14:30:20;6.00;87.60
8892;DHT22;4482;54.332;10.118;2023-04-03T14:32:47;6.10;85.30
8892;DHT22;4482;54.332;10.118;2023-04-03T14:35:13;6.10;84.10
8892;DHT22;4482;54.332;10.118;2023-04-03T14:37:42;6.00;81.60
8892;DHT22;4482;54.332;10.118;2023-04-03T14:40:11;6.00;81.10
8892;DHT22;4482;54.332;10.118;2023-04-03T14:42:39;6.10;83.70
8892;DHT22;4482;54.332;10.118;2023-04-03T14:45:06;6.10;84.80
8892;DHT22;4482;54.332;10.118;2023-04-03T14:47:33;6.20;88.30
8892;DHT22;4482;54.332;10.118;2023-04-03T14:50:04;6.20;87.10
8892;DHT22;4482;54.332;10.118;2023-04-03T14:52:32;6.10;81.80
8892;DHT22;4482;54.332;10.118;2023-04-03T14:55:01;6.10;81.40
8892;DHT22;4482;54.332;10.118;2023-04-03T14:57:28;6.10;78.90
8892;DHT22;4482;54.332;10.118;2023-04-03T14:59:55;6.10;75.80
8892;DHT22;4482;54.332;10.118;2023-04-03T15:02:25;6.00;79.00
8892;DHT22;4482;54.332;10.118;2023-04-03T15:04:52;6.00;78.00
8892;DHT22;4482;54.332;10.118;2023-04-03T15:07:19;6.00;78.30
8892;DHT22;4482;54.332;10.118;2023-04-03T15:09:45;5.90;79.30
8892;DHT22;4482;54.332;10.118;2023-04-03T15:12:13;6.00;79.70
8892;DHT22;4482;54.332;10.118;2023-04-03T15:14:41;6.00;78.80
8892;DHT22;4482;54.332;10.118;2023-04-03T15:17:08;6.00;78.20
8892;DHT22;4482;54.332;10.118;2023-04-03T15:19:38;5.90;79.20
8892;DHT22;4482;54.332;10.118;2023-04-03T15:22:05;5.90;81.40
8892;DHT22;4482;54.332;10.118;2023-04-03T15:24:32;5.90;81.40
8892;DHT22;4482;54.332;10.118;2023-04-03T15:26:59;5.90;81.40
8892;DHT22;4482;54.332;10.118;2023-04-03T15:29:31;5.90;81.70
8892;DHT22;4482;54.332;10.118;2023-04-03T15:32:01;6.00;82.20
8892;DHT22;4482;54.332;10.118;2023-04-03T15:34:27;5.80;81.10
8892;DHT22;4482;54.332;10.118;2023-04-03T15:36:54;5.80;80.60
8892;DHT22;4482;54.332;10.118;2023-04-03T15:39:21;5.90;81.40
8892;DHT22;4482;54.332;10.118;2023-04-03T15:41:48;5.80;81.40
8892;DHT22;4482;54.332;10.118;2023-04-03T15:44:17;5.90;81.30
8892;DHT22;4482;54.332;10.118;2023-04-03T15:46:45;5.80;81.10
8892;DHT22;4482;54.332;10.118;2023-04-03T15:49:11;5.80;82.10
8892;DHT22;4482;54.332;10.118;2023-04-03T15:51:38;5.80;83.40
8892;DHT22;4482;54.332;10.118;2023-04-03T15:54:05;5.80;83.20
8892;DHT22;4482;54.332;10.118;2023-04-03T15:56:32;5.80;83.20
8892;DHT22;4482;54.332;10.118;2023-04-03T15:58:58;5.70;81.90
8892;DHT22;4482;54.332;10.118;2023-04-03T16:01:25;5.70;80.00
8892;DHT22;4482;54.332;10.118;2023-04-03T16:03:53;5.60;81.50
8892;DHT22;4482;54.332;10.118;2023-04-03T16:06:20;5.70;83.00
8892;DHT22;4482;54.332;10.118;2023-04-03T16:08:46;5.60;83.60
8892;DHT22;4482;54.332;10.118;2023-04-03T16:11:14;5.60;84.80
8892;DHT22;4482;54.332;10.118;2023-04-03T16:13:40;5.50;85.00
8892;DHT22;4482;54.332;10.118;2023-04-03T16:16:07;5.50;85.10
8892;DHT22;4482;54.332;10.118;2023-04-03T16:18:34;5.60;90.00
8892;DHT22;4482;54.332;10.118;2023-04-03T16:21:03;5.60;84.70
8892;DHT22;4482;54.332;10.118;2023-04-03T16:23:29;5.60;83.60